LiveATC.Net - Listen to live air traffic control over the Internet! Contact LiveATC.net for advertising information


ICAO: KFTY  IATA: FTY   Airport: Fulton County Airport-Brown Field
City: Atlanta   State/Province: Georgia
Country: United States   Continent: North America
KFTY METAR Weather: KFTY 181253Z 03004KT 4SM BR OVC005 18/17 A3000 RMK AO2 SLP152 T01780167 $
KFTY Flight Activity (FlightAware)
KFTY Airport Info   (AirNav) (iFlightPlanner)
KFTY Ground/Tower
Feed Status: DOWN
Last heard on: 2015-04-17 23:51:03 (0 days 13 hours 17 minutes ago)
KFTY Ground/Tower Audio Archives
FacilityFrequency
County Ground121.700
County Tower118.450

Feed sponsored by:


NOTICE

Unauthorized use prohibited. See LiveATC.net Terms of Service


Find LiveATC Audio Streams


Airport/ARTCC Code

Frequency
(e.g., 124.400, 128.75)
Site-wide search

Browse LiveATC Feeds
LiveATC Coverage Map
Top 50 LiveATC Feeds
Bad Weather Areas

LiveATC FAQ
Offer a LiveATC Feed
Contact LiveATC.net
Press Inquiries

LiveATC on iPhone
LiveATC on Android

LiveATC Mobile
(Mobile browser)

ATC Audio Archives
Interesting Recordings

LiveATC Forums


Home Page
About LiveATC.net
Make a Donation
LiveATC Bookstore

Terms of Use
Privacy Policy

ATC/Radar Sites
U.S. ARTCC Freqs
Canadian Air Freqs

AIRMETs/SIGMETs

FAA Airport Status
Nat'l Airspace Status
Arrival Demand Charts


Server Software By:
Icecast.org
Liquidsoap

Please make a donation to help us keep growing!